Time;durP1;ratioP1;P1;durP2;ratioP2;P2;SDS_P1;SDS_P2;PMS_P1;PMS_P2;Temp;Humidity;BMP_temperature;BMP_pressure;BME280_temperature;BME280_humidity;BME280_pressure;Samples;Min_cycle;Max_cycle;Signal;HPM_P1;HPM_P2
2023/06/04 00:00:05;;;;;;;2.10;1.00;;;;;;;13.78;63.07;101943.72;6227491;28;20053;-76
2023/06/04 00:03:08;;;;;;;1.40;0.82;;;;;;;13.72;63.86;101942.25;6228031;28;20350;-76
2023/06/04 00:06:09;;;;;;;1.13;0.75;;;;;;;13.66;64.05;101939.88;6228033;28;20053;-76
2023/06/04 00:09:10;;;;;;;1.20;0.73;;;;;;;13.58;64.29;101942.88;6227303;28;20053;-76
2023/06/04 00:12:12;;;;;;;1.45;0.85;;;;;;;13.52;65.13;101939.66;6227820;28;20050;-76
2023/06/04 00:15:15;;;;;;;2.15;0.90;;;;;;;13.49;65.90;101934.50;6227907;28;20077;-76
2023/06/04 00:18:17;;;;;;;1.58;0.73;;;;;;;13.47;66.38;101931.94;6227634;28;20401;-76
2023/06/04 00:21:19;;;;;;;1.08;0.77;;;;;;;13.43;66.48;101939.16;6227173;28;20049;-76
2023/06/04 00:24:20;;;;;;;1.38;0.93;;;;;;;13.36;67.10;101935.09;6216280;28;20042;-76
2023/06/04 00:27:21;;;;;;;0.77;0.70;;;;;;;13.31;68.88;101937.09;6206392;28;20053;-76
2023/06/04 00:30:22;;;;;;;4.38;0.98;;;;;;;13.31;68.47;101931.81;6226889;28;20049;-76
2023/06/04 00:33:26;;;;;;;2.72;0.88;;;;;;;13.20;69.86;101932.25;6221024;28;20052;-76
2023/06/04 00:36:27;;;;;;;3.28;1.17;;;;;;;13.20;70.55;101936.69;6207230;28;20053;-76
2023/06/04 00:39:29;;;;;;;2.50;1.02;;;;;;;13.15;71.36;101934.25;6201509;28;20050;-76
2023/06/04 00:42:30;;;;;;;12.23;1.63;;;;;;;13.05;72.43;101934.72;6202896;28;20457;-76
2023/06/04 00:45:32;;;;;;;2.33;1.05;;;;;;;13.04;72.51;101930.38;6202672;28;20057;-76
2023/06/04 00:48:36;;;;;;;2.08;0.95;;;;;;;12.99;72.69;101927.97;6199748;28;20366;-76
2023/06/04 00:51:38;;;;;;;4.13;1.48;;;;;;;12.91;73.61;101927.44;6226323;28;20137;-76
2023/06/04 00:54:40;;;;;;;1.90;1.08;;;;;;;12.90;73.92;101926.56;6221519;28;20057;-76
2023/06/04 00:57:41;;;;;;;4.13;1.40;;;;;;;12.89;73.58;101926.63;6210847;28;20078;-76
2023/06/04 01:00:42;;;;;;;2.42;1.30;;;;;;;12.84;73.92;101929.47;6201882;28;20073;-76
2023/06/04 01:03:50;;;;;;;1.70;1.17;;;;;;;12.77;74.92;101928.03;6224800;28;20054;-76
2023/06/04 01:06:57;;;;;;;2.15;1.40;;;;;;;12.76;74.57;101928.94;6226911;28;20049;-76
2023/06/04 01:09:58;;;;;;;2.58;1.42;;;;;;;12.57;76.03;101933.31;6226140;28;20562;-76
2023/06/04 01:13:00;;;;;;;1.65;1.20;;;;;;;12.59;76.26;101928.84;6210066;28;20439;-76
2023/06/04 01:16:01;;;;;;;1.98;1.10;;;;;;;12.62;75.98;101931.31;6202240;28;20050;-76
2023/06/04 01:19:20;;;;;;;2.78;1.30;;;;;;;12.57;76.33;101926.25;6202809;28;20045;-76
2023/06/04 01:22:36;;;;;;;1.83;1.20;;;;;;;12.52;76.85;101930.00;6226419;28;20462;-76
2023/06/04 01:25:39;;;;;;;5.75;1.08;;;;;;;12.39;77.34;101927.03;6221352;28;20443;-76
2023/06/04 01:28:41;;;;;;;2.45;1.13;;;;;;;12.34;77.75;101923.72;6207554;28;20164;-76
2023/06/04 01:31:43;;;;;;;0.98;0.90;;;;;;;12.32;78.30;101925.59;6225404;28;20474;-76
2023/06/04 01:34:46;;;;;;;1.75;0.90;;;;;;;12.24;78.26;101920.63;6226152;28;20060;-76
2023/06/04 01:37:48;;;;;;;1.95;0.75;;;;;;;12.23;78.76;101913.63;6202950;28;20521;-76
2023/06/04 01:40:50;;;;;;;2.33;1.13;;;;;;;12.07;79.72;101912.53;6201229;28;20053;-76
2023/06/04 01:43:51;;;;;;;1.35;0.98;;;;;;;12.11;80.29;101908.88;6200768;28;20053;-76
2023/06/04 01:46:53;;;;;;;2.72;1.10;;;;;;;12.06;80.29;101908.19;6226331;28;20061;-76
2023/06/04 01:49:55;;;;;;;3.10;1.23;;;;;;;12.01;80.08;101911.03;6225154;28;20053;-76
2023/06/04 01:52:57;;;;;;;2.15;1.20;;;;;;;12.01;80.62;101910.16;6226250;28;20052;-76
2023/06/04 01:55:59;;;;;;;3.70;1.13;;;;;;;11.93;80.52;101906.06;6201712;28;20350;-76
2023/06/04 01:59:02;;;;;;;1.33;1.00;;;;;;;11.94;80.51;101912.19;6219097;28;20043;-76
2023/06/04 02:02:03;;;;;;;3.75;1.00;;;;;;;11.84;81.77;101906.44;6224611;28;20049;-76
2023/06/04 02:05:07;;;;;;;5.32;1.40;;;;;;;11.77;81.24;101909.34;6201462;28;20105;-76
2023/06/04 02:08:08;;;;;;;3.03;1.05;;;;;;;11.73;82.01;101900.72;6201778;28;20061;-76
2023/06/04 02:11:10;;;;;;;3.03;1.27;;;;;;;11.75;82.28;101909.41;6200637;28;20181;-76
2023/06/04 02:14:11;;;;;;;4.30;1.23;;;;;;;11.60;81.97;101913.50;6203282;28;20057;-76
2023/06/04 02:17:13;;;;;;;1.80;1.00;;;;;;;11.53;82.26;101905.88;6225461;28;20248;-76
2023/06/04 02:20:16;;;;;;;1.33;0.88;;;;;;;11.49;83.03;101920.06;6225015;28;20072;-76
2023/06/04 02:23:19;;;;;;;1.50;0.80;;;;;;;11.38;83.70;101909.97;6225194;28;20064;-76
2023/06/04 02:26:22;;;;;;;1.52;1.05;;;;;;;11.34;83.73;101911.00;6225566;28;20057;-76
2023/06/04 02:29:23;;;;;;;1.48;1.15;;;;;;;11.34;84.33;101916.25;6222461;28;20129;-76
2023/06/04 02:32:25;;;;;;;3.63;1.40;;;;;;;11.37;85.01;101918.78;6225570;28;20049;-76
2023/06/04 02:35:28;;;;;;;1.48;0.80;;;;;;;11.33;85.22;101914.56;6225226;28;20050;-76
2023/06/04 02:38:29;;;;;;;1.75;0.88;;;;;;;11.32;84.69;101924.22;6221416;28;20050;-76
2023/06/04 02:41:30;;;;;;;2.10;1.15;;;;;;;11.32;85.28;101923.38;6212785;28;20041;-76
2023/06/04 02:44:32;;;;;;;2.88;1.13;;;;;;;11.29;85.05;101928.72;6225090;28;20045;-76
2023/06/04 02:47:33;;;;;;;2.60;1.20;;;;;;;11.15;86.53;101927.47;6204227;28;20046;-76
2023/06/04 02:50:36;;;;;;;2.25;0.90;;;;;;;11.20;85.13;101935.19;6197777;28;20053;-76
2023/06/04 02:53:37;;;;;;;1.67;1.10;;;;;;;11.17;84.95;101935.31;6200736;28;20368;-76
2023/06/04 02:56:39;;;;;;;1.63;1.00;;;;;;;11.15;86.72;101938.00;6207046;28;20049;-76
2023/06/04 02:59:41;;;;;;;2.13;1.10;;;;;;;11.19;86.28;101941.38;6202747;28;20053;-76
2023/06/04 03:02:43;;;;;;;2.28;1.00;;;;;;;11.16;86.45;101942.34;6212620;28;20053;-75
2023/06/04 03:05:46;;;;;;;1.95;1.13;;;;;;;11.16;87.24;101942.34;6219293;28;20053;-76
2023/06/04 03:08:48;;;;;;;1.88;1.13;;;;;;;11.17;86.68;101945.81;6229012;28;20053;-76
2023/06/04 03:11:50;;;;;;;3.28;1.20;;;;;;;11.09;86.44;101947.91;6205728;28;20069;-77
2023/06/04 03:14:51;;;;;;;4.03;1.02;;;;;;;11.08;87.77;101943.53;6212067;28;20466;-76
2023/06/04 03:17:52;;;;;;;3.13;1.35;;;;;;;11.04;87.83;101931.44;6205894;28;20046;-76
2023/06/04 03:20:55;;;;;;;1.65;1.27;;;;;;;11.03;87.74;101941.06;6203944;28;20046;-76
2023/06/04 03:23:57;;;;;;;2.05;1.13;;;;;;;10.97;87.91;101940.44;6204657;28;20050;-76
2023/06/04 03:26:58;;;;;;;2.13;1.13;;;;;;;10.97;88.28;101937.81;6204668;28;20046;-77
2023/06/04 03:29:59;;;;;;;1.30;0.90;;;;;;;10.95;88.10;101945.75;6203948;28;20458;-76
2023/06/04 03:33:01;;;;;;;2.50;1.38;;;;;;;10.93;88.51;101940.53;6220979;28;20057;-76
2023/06/04 03:36:05;;;;;;;2.38;1.10;;;;;;;10.96;89.01;101936.94;6212521;28;20061;-76
2023/06/04 03:39:06;;;;;;;2.72;1.00;;;;;;;10.91;89.90;101937.13;6228062;28;20426;-76
2023/06/04 03:42:07;;;;;;;1.40;1.00;;;;;;;10.89;89.99;101940.69;6228653;28;20046;-77
2023/06/04 03:45:09;;;;;;;4.97;1.00;;;;;;;10.81;89.83;101942.75;6228488;28;20069;-76
2023/06/04 03:48:11;;;;;;;2.83;1.02;;;;;;;10.83;89.96;101938.31;6228558;28;20435;-76
2023/06/04 03:51:13;;;;;;;2.58;1.05;;;;;;;10.82;90.83;101942.72;6213181;28;20042;-77
2023/06/04 03:54:16;;;;;;;1.85;1.00;;;;;;;10.81;90.11;101942.75;6209706;28;20057;-76
2023/06/04 03:57:17;;;;;;;1.23;0.82;;;;;;;10.79;91.10;101937.53;6207266;28;20680;-76
2023/06/04 04:00:20;;;;;;;1.67;1.02;;;;;;;10.82;90.65;101936.59;6201813;28;20056;-76
2023/06/04 04:03:21;;;;;;;2.92;0.85;;;;;;;10.82;91.63;101937.44;6208881;28;20568;-76
2023/06/04 04:06:24;;;;;;;2.65;1.00;;;;;;;10.84;92.06;101942.63;6207949;28;20105;-76
2023/06/04 04:09:25;;;;;;;3.15;1.25;;;;;;;10.78;91.73;101937.59;6209472;28;20122;-76
2023/06/04 04:12:26;;;;;;;1.73;1.23;;;;;;;10.79;92.39;101941.94;6186787;28;20042;-76
2023/06/04 04:15:28;;;;;;;2.95;1.20;;;;;;;10.85;92.63;101939.94;6181936;28;20042;-76
2023/06/04 04:18:33;;;;;;;3.08;1.08;;;;;;;10.94;92.44;101938.75;6188961;28;20419;-76
2023/06/04 04:21:37;;;;;;;2.45;1.20;;;;;;;11.00;92.37;101943.81;6205590;28;20129;-76
2023/06/04 04:24:39;;;;;;;6.45;1.30;;;;;;;11.00;92.14;101938.56;6204104;28;20053;-76
2023/06/04 04:27:40;;;;;;;2.20;1.23;;;;;;;11.09;92.29;101945.28;6180622;28;20043;-76
2023/06/04 04:30:42;;;;;;;2.13;1.00;;;;;;;11.16;92.40;101944.97;6195829;28;20038;-76
2023/06/04 04:33:44;;;;;;;5.18;1.00;;;;;;;11.21;92.93;101943.94;6208508;28;20046;-76
2023/06/04 04:36:51;;;;;;;1.50;1.00;;;;;;;11.28;93.42;101948.06;6206654;28;20123;-76
2023/06/04 04:39:53;;;;;;;1.95;1.25;;;;;;;11.27;93.29;101944.59;6182852;28;20506;-76
2023/06/04 04:42:54;;;;;;;4.22;1.30;;;;;;;11.28;92.45;101941.03;6183348;28;20626;-76
2023/06/04 04:45:55;;;;;;;3.38;1.45;;;;;;;11.33;92.51;101933.81;6183753;28;20046;-76
2023/06/04 04:48:57;;;;;;;1.60;1.10;;;;;;;11.40;92.23;101940.59;6185283;28;20038;-76
2023/06/04 04:51:59;;;;;;;2.20;1.48;;;;;;;11.46;93.27;101939.50;6200718;28;20455;-76
2023/06/04 04:55:01;;;;;;;1.83;1.17;;;;;;;11.46;92.44;101942.13;6202148;28;20050;-76
2023/06/04 04:58:02;;;;;;;2.58;1.40;;;;;;;11.47;92.67;101941.22;6214255;28;20053;-77
2023/06/04 05:01:03;;;;;;;3.15;1.20;;;;;;;11.49;92.01;101935.88;6206914;28;20104;-76
2023/06/04 05:04:05;;;;;;;2.47;1.42;;;;;;;11.54;91.84;101942.69;6201801;28;20081;-76
2023/06/04 05:07:07;;;;;;;4.47;1.30;;;;;;;11.61;92.02;101948.56;6210432;28;20450;-76
2023/06/04 05:10:09;;;;;;;1.80;1.13;;;;;;;11.63;91.88;101949.41;6201747;28;20050;-76
2023/06/04 05:13:11;;;;;;;2.90;1.00;;;;;;;11.69;91.92;101946.50;6202028;28;20072;-76
2023/06/04 05:16:12;;;;;;;4.75;1.75;;;;;;;11.70;90.36;101937.69;6202314;28;20379;-77
2023/06/04 05:19:15;;;;;;;0.98;0.90;;;;;;;11.77;88.99;101938.31;6201377;28;20459;-76
2023/06/04 05:22:20;;;;;;;0.82;0.70;;;;;;;11.81;87.77;101942.53;6201842;28;20431;-76
2023/06/04 05:25:21;;;;;;;3.97;1.13;;;;;;;11.87;87.47;101940.56;6201812;28;20042;-77
2023/06/04 05:28:24;;;;;;;1.60;1.05;;;;;;;11.93;87.90;101942.09;6201995;28;20050;-76
2023/06/04 05:31:26;;;;;;;1.30;1.00;;;;;;;11.99;88.04;101954.16;6219320;28;20049;-77
2023/06/04 05:34:27;;;;;;;4.97;0.90;;;;;;;12.03;88.42;101945.19;6224544;28;20727;-76
2023/06/04 05:37:30;;;;;;;1.40;0.88;;;;;;;12.04;87.78;101950.44;6198220;28;20048;-76
2023/06/04 05:40:32;;;;;;;2.47;1.00;;;;;;;12.02;85.31;101943.50;6213121;28;20042;-77
2023/06/04 05:43:33;;;;;;;1.23;1.02;;;;;;;12.04;85.09;101950.44;6213387;28;20335;-77
2023/06/04 05:46:35;;;;;;;2.25;0.90;;;;;;;12.10;85.26;101942.25;6225814;28;20209;-77
2023/06/04 05:49:36;;;;;;;1.02;0.85;;;;;;;12.14;84.76;101949.13;6210439;28;20038;-77
2023/06/04 05:52:39;;;;;;;1.92;0.88;;;;;;;12.15;83.37;101953.47;6217747;28;20049;-76
2023/06/04 05:55:40;;;;;;;3.70;1.42;;;;;;;12.27;83.58;101948.63;6217136;28;20050;-76
2023/06/04 05:58:42;;;;;;;2.72;1.10;;;;;;;12.34;83.77;101944.81;6215084;28;20048;-76
2023/06/04 06:01:44;;;;;;;3.17;1.38;;;;;;;12.38;82.06;101949.03;6210900;28;20050;-76
2023/06/04 06:04:45;;;;;;;0.70;0.60;;;;;;;12.37;82.25;101956.09;6201267;28;20504;-76
2023/06/04 06:07:48;;;;;;;1.08;0.82;;;;;;;12.42;81.90;101962.03;6201321;28;20084;-76
2023/06/04 06:10:49;;;;;;;1.35;0.93;;;;;;;12.47;80.87;101966.25;6200785;28;20054;-76
2023/06/04 06:13:51;;;;;;;1.15;0.60;;;;;;;12.49;80.83;101962.66;6201145;28;20046;-76
2023/06/04 06:16:52;;;;;;;1.42;0.75;;;;;;;12.55;81.70;101965.03;6194151;28;20349;-76
2023/06/04 06:19:54;;;;;;;1.65;1.00;;;;;;;12.63;82.48;101970.84;6199638;28;20050;-76
2023/06/04 06:22:57;;;;;;;0.65;0.50;;;;;;;12.71;82.25;101962.56;6201263;28;20050;-76
2023/06/04 06:26:01;;;;;;;1.42;0.90;;;;;;;12.76;82.88;101965.00;6201041;28;20051;-76
2023/06/04 06:29:02;;;;;;;1.52;0.90;;;;;;;12.81;81.82;101973.59;6193379;28;20070;-76
2023/06/04 06:32:04;;;;;;;1.27;0.80;;;;;;;12.84;80.94;101969.03;6224835;28;20053;-76
2023/06/04 06:35:07;;;;;;;0.93;0.80;;;;;;;12.86;80.41;101967.22;6225194;28;20061;-76
2023/06/04 06:38:10;;;;;;;1.08;0.60;;;;;;;12.91;78.73;101967.00;6228241;28;20057;-76
2023/06/04 06:41:11;;;;;;;3.78;1.17;;;;;;;12.97;79.01;101972.00;6229349;28;20457;-76
2023/06/04 06:44:13;;;;;;;0.88;0.60;;;;;;;13.01;79.69;101976.22;6218055;28;20053;-76
2023/06/04 06:47:14;;;;;;;0.70;0.60;;;;;;;13.05;78.41;101980.44;6203645;28;20066;-76
2023/06/04 06:50:16;;;;;;;0.88;0.80;;;;;;;13.09;78.83;101973.25;6211977;28;20060;-76
2023/06/04 06:53:18;;;;;;;1.75;0.70;;;;;;;13.14;78.88;101976.56;6229638;28;20060;-76
2023/06/04 06:56:19;;;;;;;1.00;0.60;;;;;;;13.23;76.25;101976.19;6219491;28;20057;-76
2023/06/04 06:59:21;;;;;;;0.95;0.63;;;;;;;13.30;77.61;101977.59;6209526;28;20057;-76
2023/06/04 07:02:23;;;;;;;1.80;0.90;;;;;;;13.36;72.71;101982.63;6203182;28;20324;-76
2023/06/04 07:05:24;;;;;;;1.85;0.60;;;;;;;13.50;70.98;101989.06;6204304;28;20046;-76
2023/06/04 07:08:28;;;;;;;1.35;0.90;;;;;;;13.58;67.40;101994.81;6213105;28;20056;-76
2023/06/04 07:11:29;;;;;;;1.85;0.60;;;;;;;13.70;68.05;101994.28;6212831;28;20435;-76
2023/06/04 07:14:31;;;;;;;5.10;0.98;;;;;;;13.81;67.02;101993.78;6197191;28;20057;-76
2023/06/04 07:17:32;;;;;;;1.48;0.77;;;;;;;13.87;65.91;101985.56;6200196;28;20363;-76
2023/06/04 07:20:33;;;;;;;1.00;0.82;;;;;;;13.92;66.59;101986.19;6202393;28;20049;-76
2023/06/04 07:23:36;;;;;;;2.05;0.65;;;;;;;13.96;66.03;101993.91;6205143;28;20049;-76
2023/06/04 07:26:37;;;;;;;1.17;0.80;;;;;;;14.02;65.94;101994.53;6200155;28;20050;-76
2023/06/04 07:29:39;;;;;;;1.00;0.60;;;;;;;14.14;60.93;101989.53;6204663;28;20053;-76
2023/06/04 07:32:40;;;;;;;0.40;0.40;;;;;;;14.25;60.20;101986.34;6209495;28;20047;-76
2023/06/04 07:35:41;;;;;;;1.42;0.75;;;;;;;14.29;61.70;101995.84;6209199;28;20053;-76
2023/06/04 07:38:45;;;;;;;1.75;0.80;;;;;;;14.31;61.12;101980.78;6203030;28;20065;-76
2023/06/04 07:41:46;;;;;;;1.55;0.50;;;;;;;14.35;61.05;101979.69;6205696;28;20057;-76
2023/06/04 07:44:47;;;;;;;0.82;0.63;;;;;;;14.43;62.13;101980.16;6228741;28;20057;-76
2023/06/04 07:47:49;;;;;;;1.02;0.82;;;;;;;14.46;60.37;101980.00;6212200;28;20057;-76
2023/06/04 07:50:50;;;;;;;0.80;0.55;;;;;;;14.52;60.58;101973.59;6207580;28;20471;-76
2023/06/04 07:53:53;;;;;;;0.90;0.60;;;;;;;14.58;61.19;101985.63;6220541;28;20042;-76
2023/06/04 07:56:55;;;;;;;2.85;0.60;;;;;;;14.72;59.87;101980.53;6218266;28;20125;-76
2023/06/04 07:59:57;;;;;;;0.63;0.52;;;;;;;14.81;58.83;101979.22;6216398;28;20050;-76
2023/06/04 08:02:59;;;;;;;3.47;2.05;;;;;;;14.85;59.48;101992.22;6226851;28;20125;-76
2023/06/04 08:06:00;;;;;;;0.80;0.45;;;;;;;14.87;58.49;101992.97;6195713;28;20078;-76
2023/06/04 08:09:03;;;;;;;2.58;0.95;;;;;;;14.93;60.88;101991.78;6203646;28;20053;-76
2023/06/04 08:12:05;;;;;;;2.05;0.63;;;;;;;15.01;57.73;101981.66;6211638;28;20421;-76
2023/06/04 08:15:07;;;;;;;0.35;0.35;;;;;;;15.11;58.57;101982.03;6227636;28;20053;-76
2023/06/04 08:18:08;;;;;;;1.27;0.63;;;;;;;15.21;62.26;101985.91;6227877;28;20058;-76
2023/06/04 08:21:11;;;;;;;1.25;0.68;;;;;;;15.30;59.83;101989.84;6226782;28;20053;-76
2023/06/04 08:24:14;;;;;;;4.97;1.00;;;;;;;15.34;57.78;101996.72;6221711;28;20133;-76
2023/06/04 08:27:17;;;;;;;1.13;0.52;;;;;;;15.37;60.44;101992.09;6217185;28;20057;-77
2023/06/04 08:30:18;;;;;;;2.38;0.88;;;;;;;15.41;60.24;101990.16;6210421;28;20136;-77
2023/06/04 08:33:20;;;;;;;1.23;0.50;;;;;;;15.53;57.09;102001.88;6217954;28;21343;-77
2023/06/04 08:36:21;;;;;;;0.55;0.40;;;;;;;15.57;54.77;101996.31;6193543;28;20042;-77
2023/06/04 08:39:24;;;;;;;0.70;0.40;;;;;;;15.68;53.86;102004.59;6201335;28;20046;-77
2023/06/04 08:42:30;;;;;;;0.55;0.40;;;;;;;15.77;53.25;101994.44;6196181;28;20082;-77
2023/06/04 08:45:33;;;;;;;0.60;0.47;;;;;;;15.89;51.99;101994.59;6196936;28;20189;-77
2023/06/04 08:48:36;;;;;;;0.73;0.50;;;;;;;15.90;53.72;102009.56;6201146;28;20057;-77
2023/06/04 08:51:38;;;;;;;0.70;0.60;;;;;;;15.93;52.64;101998.78;6205136;28;20044;-76
2023/06/04 08:54:41;;;;;;;0.57;0.50;;;;;;;15.98;53.42;101995.88;6210736;28;20049;-77
2023/06/04 08:57:42;;;;;;;2.85;0.70;;;;;;;16.05;51.66;101996.41;6219533;28;20579;-76
2023/06/04 09:00:44;;;;;;;1.75;0.55;;;;;;;16.12;52.35;102001.25;6208024;28;20049;-76
2023/06/04 09:03:46;;;;;;;1.75;0.73;;;;;;;16.27;53.96;102001.34;6216449;28;20053;-76
2023/06/04 09:06:48;;;;;;;1.05;0.60;;;;;;;16.44;52.45;102007.38;6210892;28;20062;-76
2023/06/04 09:09:51;;;;;;;1.83;0.50;;;;;;;16.47;52.61;101993.06;6211340;28;20046;-77
2023/06/04 09:12:53;;;;;;;0.75;0.50;;;;;;;16.62;47.31;101988.66;6210920;28;20054;-77
2023/06/04 09:16:01;;;;;;;1.33;0.52;;;;;;;16.61;47.81;101998.44;6199526;28;20054;-76
2023/06/04 09:19:02;;;;;;;2.13;0.60;;;;;;;16.56;49.77;101995.19;6204869;28;20447;-76
2023/06/04 09:22:05;;;;;;;0.82;0.45;;;;;;;16.67;48.08;101999.88;6208778;28;20137;-76
2023/06/04 09:25:21;;;;;;;0.95;0.65;;;;;;;16.67;46.71;101998.09;6203743;28;20118;-75
2023/06/04 09:28:22;;;;;;;2.92;0.43;;;;;;;16.71;50.69;101996.06;6203856;28;20122;-75
2023/06/04 09:31:26;;;;;;;4.18;1.20;;;;;;;16.95;48.61;102004.44;6209704;28;20331;-76
2023/06/04 09:34:28;;;;;;;1.52;0.40;;;;;;;16.87;47.94;101993.41;6228353;23;20082;-73
2023/06/04 09:37:30;;;;;;;1.67;0.60;;;;;;;16.75;48.78;101997.63;6170364;28;20434;-74
2023/06/04 09:40:38;;;;;;;1.02;0.63;;;;;;;16.79;49.31;101991.22;6172564;28;20452;-73
2023/06/04 09:43:40;;;;;;;0.40;0.40;;;;;;;16.77;52.37;101986.94;6167384;28;20129;-73
2023/06/04 09:46:41;;;;;;;1.33;0.50;;;;;;;16.90;50.80;101995.91;6175825;28;20058;-73
2023/06/04 09:49:43;;;;;;;3.58;0.80;;;;;;;17.02;48.49;101983.66;6170784;28;20062;-73
2023/06/04 09:52:45;;;;;;;0.50;0.40;;;;;;;17.35;46.35;101989.59;6174462;28;20051;-72
2023/06/04 09:55:58;;;;;;;1.05;0.70;;;;;;;17.58;45.55;101989.94;6174873;28;20142;-73
2023/06/04 09:59:01;;;;;;;0.80;0.45;;;;;;;17.58;47.93;101990.81;6175974;28;20083;-73
2023/06/04 10:02:04;;;;;;;2.75;0.70;;;;;;;17.74;45.18;101990.69;6167794;28;20068;-73
2023/06/04 10:05:08;;;;;;;1.70;0.50;;;;;;;17.89;46.01;101997.69;6175153;28;20051;-72
2023/06/04 10:08:12;;;;;;;2.33;0.60;;;;;;;17.96;47.46;101991.03;6169738;28;20049;-75
2023/06/04 10:11:15;;;;;;;1.35;0.47;;;;;;;17.94;45.23;101987.63;6171365;28;20396;-74
2023/06/04 10:14:22;;;;;;;1.05;0.50;;;;;;;17.97;45.87;101981.25;6176635;28;20054;-74
2023/06/04 10:17:25;;;;;;;0.52;0.50;;;;;;;18.08;43.93;101989.41;6177275;28;20054;-73
2023/06/04 10:20:26;;;;;;;1.05;0.60;;;;;;;18.22;44.43;101991.16;6181261;28;20051;-73
2023/06/04 10:23:29;;;;;;;1.38;0.70;;;;;;;18.17;42.83;101979.97;6178333;28;20043;-72
2023/06/04 10:26:34;;;;;;;1.08;0.60;;;;;;;18.18;44.08;101984.31;6165723;28;20059;-73
2023/06/04 10:29:35;;;;;;;1.98;0.65;;;;;;;18.23;43.70;101984.88;6172505;28;20054;-73
2023/06/04 10:32:36;;;;;;;1.42;0.50;;;;;;;18.28;43.59;101980.09;6167305;28;20055;-73
2023/06/04 10:35:38;;;;;;;1.08;0.63;;;;;;;18.48;44.14;101981.41;6157591;28;20047;-73
2023/06/04 10:38:46;;;;;;;1.27;0.65;;;;;;;18.54;42.76;101975.72;6157688;28;20105;-73
2023/06/04 10:41:58;;;;;;;1.50;0.50;;;;;;;18.61;42.32;101976.97;6157668;28;20055;-73
2023/06/04 10:45:00;;;;;;;0.82;0.60;;;;;;;18.56;41.52;101978.25;6180805;28;20063;-73
2023/06/04 10:48:01;;;;;;;5.03;0.47;;;;;;;18.59;41.69;101978.06;6169343;28;20460;-73
2023/06/04 10:51:03;;;;;;;1.10;0.70;;;;;;;18.75;41.55;101970.75;6172479;28;20047;-73
2023/06/04 10:54:05;;;;;;;0.95;0.60;;;;;;;18.83;42.53;101980.88;6157082;28;20058;-73
2023/06/04 10:57:13;;;;;;;3.53;0.50;;;;;;;18.93;43.47;101974.81;6169053;28;20494;-73
2023/06/04 11:00:16;;;;;;;1.13;0.73;;;;;;;18.98;44.56;101970.03;6170552;28;20479;-73
2023/06/04 11:03:18;;;;;;;1.45;0.50;;;;;;;19.05;44.49;101967.78;6157065;28;20047;-73
2023/06/04 11:06:20;;;;;;;0.50;0.50;;;;;;;19.21;44.12;101972.91;6156897;28;20477;-73
2023/06/04 11:09:22;;;;;;;1.27;0.68;;;;;;;19.27;42.99;101973.34;6156449;28;20052;-73
2023/06/04 11:12:25;;;;;;;1.48;0.50;;;;;;;19.45;43.77;101975.66;6156991;28;20050;-73
2023/06/04 11:15:26;;;;;;;0.82;0.60;;;;;;;19.52;41.75;101976.91;6157015;28;20047;-73
2023/06/04 11:18:27;;;;;;;0.82;0.60;;;;;;;19.45;43.37;101967.66;6156853;28;20051;-73
2023/06/04 11:21:29;;;;;;;1.52;0.50;;;;;;;19.58;43.47;101960.50;6156261;28;20046;-73
2023/06/04 11:24:31;;;;;;;2.97;0.60;;;;;;;19.61;42.52;101960.28;6156207;28;20051;-73
2023/06/04 11:27:34;;;;;;;1.42;0.75;;;;;;;19.73;43.12;101956.72;6161800;28;20046;-73
2023/06/04 11:30:36;;;;;;;1.10;0.40;;;;;;;19.83;43.30;101956.91;6179991;28;20047;-72
2023/06/04 11:33:46;;;;;;;0.75;0.70;;;;;;;20.02;42.28;101945.72;6180250;28;20045;-73
2023/06/04 11:36:49;;;;;;;2.53;0.70;;;;;;;20.14;42.40;101952.00;6180309;28;20062;-73
2023/06/04 11:39:50;;;;;;;1.52;0.60;;;;;;;20.34;40.67;101948.66;6179411;28;20051;-73
2023/06/04 11:42:54;;;;;;;1.15;0.70;;;;;;;20.32;39.67;101939.94;6180100;28;20042;-74
2023/06/04 11:45:55;;;;;;;0.70;0.70;;;;;;;20.41;39.73;101939.22;6179426;28;20055;-73
2023/06/04 11:48:56;;;;;;;0.63;0.52;;;;;;;20.60;38.84;101941.38;6180271;28;20450;-73
2023/06/04 11:51:58;;;;;;;0.60;0.50;;;;;;;20.77;37.93;101935.59;6179332;28;20051;-73
2023/06/04 11:55:00;;;;;;;0.70;0.50;;;;;;;20.96;38.04;101932.34;6179551;28;20054;-72
2023/06/04 11:58:02;;;;;;;1.10;0.70;;;;;;;21.15;37.11;101930.88;6177624;28;20055;-72
2023/06/04 12:01:04;;;;;;;2.08;0.63;;;;;;;21.27;36.94;101932.59;6169031;28;20455;-73
2023/06/04 12:04:12;;;;;;;1.35;0.52;;;;;;;21.44;38.92;101931.28;6175548;28;20046;-73
2023/06/04 12:07:23;;;;;;;0.68;0.68;;;;;;;21.65;36.72;101934.88;6175253;28;20046;-73
2023/06/04 12:10:26;;;;;;;0.80;0.55;;;;;;;21.73;37.02;101936.94;6172130;28;20360;-71
2023/06/04 12:13:38;;;;;;;1.42;0.70;;;;;;;21.78;37.61;101927.53;6172741;28;20058;-71
2023/06/04 12:16:39;;;;;;;0.80;0.60;;;;;;;22.02;36.65;101940.72;6171067;28;20054;-77
2023/06/04 12:19:48;;;;;;;1.83;0.70;;;;;;;22.07;36.61;101926.09;6172827;28;20351;-72
2023/06/04 12:22:52;;;;;;;1.50;0.68;;;;;;;22.16;36.84;101926.22;6172195;28;20089;-72
2023/06/04 12:25:53;;;;;;;2.40;0.80;;;;;;;22.28;37.83;101933.22;6166449;28;20432;-70
2023/06/04 12:29:01;;;;;;;1.15;0.70;;;;;;;22.25;35.53;101922.75;6172024;28;20051;-72
2023/06/04 12:32:04;;;;;;;2.85;0.80;;;;;;;22.28;35.98;101925.19;6168632;28;20054;-70
2023/06/04 12:35:06;;;;;;;1.25;0.70;;;;;;;22.40;36.09;101922.47;6171913;28;20078;-70
2023/06/04 12:38:08;;;;;;;2.38;0.70;;;;;;;22.43;35.71;101920.38;6175898;28;20046;-72
2023/06/04 12:41:10;;;;;;;1.70;0.60;;;;;;;22.38;36.40;101922.59;6166137;28;20057;-72
2023/06/04 12:44:13;;;;;;;0.60;0.60;;;;;;;22.27;34.66;101910.13;6164255;28;20522;-72
2023/06/04 12:47:14;;;;;;;0.52;0.52;;;;;;;22.43;36.42;101917.69;6170396;28;20290;-73
2023/06/04 12:50:18;;;;;;;0.73;0.60;;;;;;;22.59;37.41;101908.34;6170072;28;20078;-73
2023/06/04 12:53:19;;;;;;;1.35;0.60;;;;;;;22.90;35.78;101909.28;6174721;28;20065;-73
2023/06/04 12:56:21;;;;;;;0.57;0.57;;;;;;;23.04;34.42;101909.75;6167623;28;20065;-73
2023/06/04 12:59:25;;;;;;;0.93;0.73;;;;;;;23.08;35.29;101914.88;6171457;28;20521;-75
2023/06/04 13:02:26;;;;;;;0.77;0.50;;;;;;;22.98;32.99;101901.38;6167081;28;20054;-75
2023/06/04 13:05:27;;;;;;;2.20;0.70;;;;;;;22.78;35.05;101906.63;6170576;28;20054;-73
2023/06/04 13:08:29;;;;;;;1.15;0.80;;;;;;;22.79;34.39;101900.28;6167189;28;20047;-73
2023/06/04 13:11:30;;;;;;;0.82;0.52;;;;;;;22.83;35.02;101906.22;6161578;28;20337;-73
2023/06/04 13:14:33;;;;;;;1.00;0.68;;;;;;;23.24;35.95;101908.00;6168918;28;20047;-73
2023/06/04 13:17:35;;;;;;;1.15;0.50;;;;;;;23.42;35.69;101910.88;6164666;28;20194;-73
2023/06/04 13:20:36;;;;;;;0.77;0.60;;;;;;;23.43;34.09;101909.03;6164179;28;20055;-72
2023/06/04 13:23:37;;;;;;;2.17;0.80;;;;;;;23.45;37.24;101904.41;6162030;28;20446;-73
2023/06/04 13:26:41;;;;;;;0.57;0.50;;;;;;;23.45;33.69;101896.34;6162049;28;20057;-73
2023/06/04 13:29:44;;;;;;;1.17;0.50;;;;;;;23.41;33.98;101902.97;6163790;28;20051;-72
2023/06/04 13:32:45;;;;;;;0.88;0.43;;;;;;;23.35;34.07;101895.47;6161784;28;20368;-72
2023/06/04 13:35:47;;;;;;;0.93;0.70;;;;;;;23.44;35.10;101908.06;6164255;28;20046;-72
2023/06/04 13:38:48;;;;;;;1.27;0.70;;;;;;;23.58;34.74;101890.72;6163771;28;20047;-73
2023/06/04 13:41:49;;;;;;;1.65;0.60;;;;;;;23.51;33.00;101893.94;6173057;28;20061;-73
2023/06/04 13:44:52;;;;;;;0.50;0.50;;;;;;;23.42;33.00;101894.78;6168687;28;20046;-74
2023/06/04 13:47:53;;;;;;;0.60;0.60;;;;;;;23.60;34.67;101894.09;6161856;28;20062;-72
2023/06/04 13:50:55;;;;;;;0.88;0.52;;;;;;;23.75;35.84;101896.28;6162487;28;20051;-73
2023/06/04 13:53:56;;;;;;;0.93;0.55;;;;;;;23.86;33.40;101895.31;6159804;28;20062;-72
2023/06/04 13:56:58;;;;;;;0.93;0.60;;;;;;;23.88;32.80;101882.56;6166332;28;20050;-72
2023/06/04 14:00:00;;;;;;;0.90;0.85;;;;;;;24.04;34.97;101885.56;6168504;28;20058;-73
2023/06/04 14:03:02;;;;;;;1.08;0.70;;;;;;;24.23;34.53;101876.63;6161707;28;20375;-74
2023/06/04 14:06:03;;;;;;;0.95;0.82;;;;;;;24.18;33.01;101883.44;6168401;28;20135;-71